sensor_id;sensor_type;location;lat;lon;timestamp;temperature;humidity
20512;DHT22;10414;52.074;5.126;2022-09-17T00:00:43;13.50;99.90
20512;DHT22;10414;52.074;5.126;2022-09-17T00:03:10;13.30;99.90
20512;DHT22;10414;52.074;5.126;2022-09-17T00:05:37;13.20;99.90
20512;DHT22;10414;52.074;5.126;2022-09-17T00:08:04;13.10;99.90
20512;DHT22;10414;52.074;5.126;2022-09-17T00:10:36;13.10;99.90
20512;DHT22;10414;52.074;5.126;2022-09-17T00:13:03;13.00;99.90
20512;DHT22;10414;52.074;5.126;2022-09-17T00:15:38;13.00;99.90
20512;DHT22;10414;52.074;5.126;2022-09-17T00:18:05;12.80;99.90
20512;DHT22;10414;52.074;5.126;2022-09-17T00:20:38;12.90;99.90
20512;DHT22;10414;52.074;5.126;2022-09-17T00:23:05;13.00;99.90
20512;DHT22;10414;52.074;5.126;2022-09-17T00:25:33;13.00;99.90
20512;DHT22;10414;52.074;5.126;2022-09-17T00:28:00;13.10;99.90
20512;DHT22;10414;52.074;5.126;2022-09-17T00:30:27;13.20;99.90
20512;DHT22;10414;52.074;5.126;2022-09-17T00:32:55;13.50;99.90
20512;DHT22;10414;52.074;5.126;2022-09-17T00:35:22;13.60;99.90
20512;DHT22;10414;52.074;5.126;2022-09-17T00:37:49;13.50;99.90
20512;DHT22;10414;52.074;5.126;2022-09-17T00:40:17;13.20;99.90
20512;DHT22;10414;52.074;5.126;2022-09-17T00:42:45;13.10;99.90
20512;DHT22;10414;52.074;5.126;2022-09-17T00:45:12;12.90;99.90
20512;DHT22;10414;52.074;5.126;2022-09-17T00:47:41;13.10;99.90
20512;DHT22;10414;52.074;5.126;2022-09-17T00:50:16;13.00;99.90
20512;DHT22;10414;52.074;5.126;2022-09-17T00:52:47;13.00;99.90
20512;DHT22;10414;52.074;5.126;2022-09-17T00:55:18;13.00;99.90
20512;DHT22;10414;52.074;5.126;2022-09-17T00:57:48;13.00;99.90
20512;DHT22;10414;52.074;5.126;2022-09-17T01:00:16;12.80;99.90
20512;DHT22;10414;52.074;5.126;2022-09-17T01:02:44;12.70;99.90
20512;DHT22;10414;52.074;5.126;2022-09-17T01:05:13;12.60;99.90
20512;DHT22;10414;52.074;5.126;2022-09-17T01:07:57;12.60;99.90
20512;DHT22;10414;52.074;5.126;2022-09-17T01:10:45;12.60;99.90
20512;DHT22;10414;52.074;5.126;2022-09-17T01:13:21;12.90;99.90
20512;DHT22;10414;52.074;5.126;2022-09-17T01:16:00;13.10;99.90
20512;DHT22;10414;52.074;5.126;2022-09-17T01:18:39;13.30;99.90
20512;DHT22;10414;52.074;5.126;2022-09-17T01:21:36;13.20;99.90
20512;DHT22;10414;52.074;5.126;2022-09-17T01:24:33;13.20;99.90
20512;DHT22;10414;52.074;5.126;2022-09-17T01:27:33;13.10;99.90
20512;DHT22;10414;52.074;5.126;2022-09-17T01:30:15;13.20;99.90
20512;DHT22;10414;52.074;5.126;2022-09-17T01:32:48;13.50;99.90
20512;DHT22;10414;52.074;5.126;2022-09-17T01:35:19;13.50;99.90
20512;DHT22;10414;52.074;5.126;2022-09-17T01:37:53;13.70;99.90
20512;DHT22;10414;52.074;5.126;2022-09-17T01:40:25;13.70;99.90
20512;DHT22;10414;52.074;5.126;2022-09-17T01:42:58;13.70;99.90
20512;DHT22;10414;52.074;5.126;2022-09-17T01:45:34;13.50;99.90
20512;DHT22;10414;52.074;5.126;2022-09-17T01:48:08;13.30;99.90
20512;DHT22;10414;52.074;5.126;2022-09-17T01:50:39;13.10;99.90
20512;DHT22;10414;52.074;5.126;2022-09-17T01:53:09;13.00;99.90
20512;DHT22;10414;52.074;5.126;2022-09-17T01:55:39;12.90;99.90
20512;DHT22;10414;52.074;5.126;2022-09-17T01:58:15;13.00;99.90
20512;DHT22;10414;52.074;5.126;2022-09-17T02:00:46;12.90;99.90
20512;DHT22;10414;52.074;5.126;2022-09-17T02:03:18;12.70;99.90
20512;DHT22;10414;52.074;5.126;2022-09-17T02:05:51;12.70;99.90
20512;DHT22;10414;52.074;5.126;2022-09-17T02:08:20;12.90;99.90
20512;DHT22;10414;52.074;5.126;2022-09-17T02:10:53;13.10;99.90
20512;DHT22;10414;52.074;5.126;2022-09-17T02:13:24;13.20;99.90
20512;DHT22;10414;52.074;5.126;2022-09-17T02:15:56;13.10;99.90
20512;DHT22;10414;52.074;5.126;2022-09-17T02:18:29;13.20;99.90
20512;DHT22;10414;52.074;5.126;2022-09-17T02:21:03;13.20;99.90
20512;DHT22;10414;52.074;5.126;2022-09-17T02:23:35;13.30;99.90
20512;DHT22;10414;52.074;5.126;2022-09-17T02:27:54;13.60;99.90
20512;DHT22;10414;52.074;5.126;2022-09-17T02:33:46;13.70;99.90
20512;DHT22;10414;52.074;5.126;2022-09-17T02:36:13;14.00;99.90
20512;DHT22;10414;52.074;5.126;2022-09-17T02:38:43;13.70;99.90
20512;DHT22;10414;52.074;5.126;2022-09-17T02:41:15;13.80;99.90
20512;DHT22;10414;52.074;5.126;2022-09-17T02:43:50;13.30;99.90
20512;DHT22;10414;52.074;5.126;2022-09-17T02:46:37;13.00;99.90
20512;DHT22;10414;52.074;5.126;2022-09-17T02:49:27;13.30;99.90
20512;DHT22;10414;52.074;5.126;2022-09-17T02:51:58;13.20;99.90
20512;DHT22;10414;52.074;5.126;2022-09-17T02:54:33;13.10;99.90
20512;DHT22;10414;52.074;5.126;2022-09-17T02:57:09;13.00;99.90
20512;DHT22;10414;52.074;5.126;2022-09-17T02:59:46;12.80;99.90
20512;DHT22;10414;52.074;5.126;2022-09-17T03:02:21;12.80;99.90
20512;DHT22;10414;52.074;5.126;2022-09-17T03:04:52;13.00;99.90
20512;DHT22;10414;52.074;5.126;2022-09-17T03:07:20;13.00;99.90
20512;DHT22;10414;52.074;5.126;2022-09-17T03:09:48;13.00;99.90
20512;DHT22;10414;52.074;5.126;2022-09-17T03:12:15;12.60;99.90
20512;DHT22;10414;52.074;5.126;2022-09-17T03:14:42;12.40;99.90
20512;DHT22;10414;52.074;5.126;2022-09-17T03:17:10;12.20;99.90
20512;DHT22;10414;52.074;5.126;2022-09-17T03:19:37;12.40;99.90
20512;DHT22;10414;52.074;5.126;2022-09-17T03:22:05;12.50;99.90
20512;DHT22;10414;52.074;5.126;2022-09-17T03:24:32;12.40;99.90
20512;DHT22;10414;52.074;5.126;2022-09-17T03:26:59;12.30;99.90
20512;DHT22;10414;52.074;5.126;2022-09-17T03:29:26;12.20;99.90
20512;DHT22;10414;52.074;5.126;2022-09-17T03:31:53;12.30;99.90
20512;DHT22;10414;52.074;5.126;2022-09-17T03:34:25;12.60;99.90
20512;DHT22;10414;52.074;5.126;2022-09-17T03:36:51;12.50;99.90
20512;DHT22;10414;52.074;5.126;2022-09-17T03:39:20;12.50;99.90
20512;DHT22;10414;52.074;5.126;2022-09-17T03:41:47;12.80;99.90
20512;DHT22;10414;52.074;5.126;2022-09-17T03:44:14;12.90;99.90
20512;DHT22;10414;52.074;5.126;2022-09-17T03:46:43;13.20;99.90
20512;DHT22;10414;52.074;5.126;2022-09-17T03:49:10;13.20;99.90
20512;DHT22;10414;52.074;5.126;2022-09-17T03:51:37;13.30;99.90
20512;DHT22;10414;52.074;5.126;2022-09-17T03:54:04;13.30;99.90
20512;DHT22;10414;52.074;5.126;2022-09-17T03:56:32;13.20;99.90
20512;DHT22;10414;52.074;5.126;2022-09-17T03:59:00;13.00;99.90
20512;DHT22;10414;52.074;5.126;2022-09-17T04:01:30;12.50;99.90
20512;DHT22;10414;52.074;5.126;2022-09-17T04:04:08;12.40;99.90
20512;DHT22;10414;52.074;5.126;2022-09-17T04:06:35;12.10;99.90
20512;DHT22;10414;52.074;5.126;2022-09-17T04:09:02;12.10;99.90
20512;DHT22;10414;52.074;5.126;2022-09-17T04:11:31;11.90;99.90
20512;DHT22;10414;52.074;5.126;2022-09-17T04:13:58;11.90;99.90
20512;DHT22;10414;52.074;5.126;2022-09-17T04:16:28;11.90;99.90
20512;DHT22;10414;52.074;5.126;2022-09-17T04:18:54;11.80;99.90
20512;DHT22;10414;52.074;5.126;2022-09-17T04:21:21;11.80;99.90
20512;DHT22;10414;52.074;5.126;2022-09-17T04:23:48;11.90;99.90
20512;DHT22;10414;52.074;5.126;2022-09-17T04:26:15;11.90;99.90
20512;DHT22;10414;52.074;5.126;2022-09-17T04:28:44;12.00;99.90
20512;DHT22;10414;52.074;5.126;2022-09-17T04:31:11;11.90;99.90
20512;DHT22;10414;52.074;5.126;2022-09-17T04:33:38;12.00;99.90
20512;DHT22;10414;52.074;5.126;2022-09-17T04:36:06;12.10;99.90
20512;DHT22;10414;52.074;5.126;2022-09-17T04:38:32;12.30;99.90
20512;DHT22;10414;52.074;5.126;2022-09-17T04:40:59;12.30;99.90
20512;DHT22;10414;52.074;5.126;2022-09-17T04:43:26;12.30;99.90
20512;DHT22;10414;52.074;5.126;2022-09-17T04:45:55;12.50;99.90
20512;DHT22;10414;52.074;5.126;2022-09-17T04:48:22;12.50;99.90
20512;DHT22;10414;52.074;5.126;2022-09-17T04:50:49;12.50;99.90
20512;DHT22;10414;52.074;5.126;2022-09-17T04:53:16;12.20;99.90
20512;DHT22;10414;52.074;5.126;2022-09-17T04:55:44;12.10;99.90
20512;DHT22;10414;52.074;5.126;2022-09-17T04:58:11;12.20;99.90
20512;DHT22;10414;52.074;5.126;2022-09-17T05:00:38;12.40;99.90
20512;DHT22;10414;52.074;5.126;2022-09-17T05:03:08;12.70;99.90
20512;DHT22;10414;52.074;5.126;2022-09-17T05:05:35;12.90;99.90
20512;DHT22;10414;52.074;5.126;2022-09-17T05:08:02;13.00;99.90
20512;DHT22;10414;52.074;5.126;2022-09-17T05:10:30;13.10;99.90
20512;DHT22;10414;52.074;5.126;2022-09-17T05:12:57;13.30;99.90
20512;DHT22;10414;52.074;5.126;2022-09-17T05:15:25;12.90;99.90
20512;DHT22;10414;52.074;5.126;2022-09-17T05:17:52;12.90;99.90
20512;DHT22;10414;52.074;5.126;2022-09-17T05:20:20;12.70;99.90
20512;DHT22;10414;52.074;5.126;2022-09-17T05:22:49;12.60;99.90
20512;DHT22;10414;52.074;5.126;2022-09-17T05:25:18;12.30;99.90
20512;DHT22;10414;52.074;5.126;2022-09-17T05:27:48;12.20;99.90
20512;DHT22;10414;52.074;5.126;2022-09-17T05:30:15;12.00;99.90
20512;DHT22;10414;52.074;5.126;2022-09-17T05:32:42;12.00;99.90
20512;DHT22;10414;52.074;5.126;2022-09-17T05:35:10;11.80;99.90
20512;DHT22;10414;52.074;5.126;2022-09-17T05:37:38;11.80;99.90
20512;DHT22;10414;52.074;5.126;2022-09-17T05:40:07;11.80;99.90
20512;DHT22;10414;52.074;5.126;2022-09-17T05:42:34;11.80;99.90
20512;DHT22;10414;52.074;5.126;2022-09-17T05:45:01;12.10;99.90
20512;DHT22;10414;52.074;5.126;2022-09-17T05:47:28;12.20;99.90
20512;DHT22;10414;52.074;5.126;2022-09-17T05:49:55;12.30;99.90
20512;DHT22;10414;52.074;5.126;2022-09-17T05:52:25;12.50;99.90
20512;DHT22;10414;52.074;5.126;2022-09-17T05:54:55;12.50;99.90
20512;DHT22;10414;52.074;5.126;2022-09-17T05:57:22;12.30;99.90
20512;DHT22;10414;52.074;5.126;2022-09-17T05:59:49;12.40;99.90
20512;DHT22;10414;52.074;5.126;2022-09-17T06:02:16;12.40;99.90
20512;DHT22;10414;52.074;5.126;2022-09-17T06:04:43;12.30;99.90
20512;DHT22;10414;52.074;5.126;2022-09-17T06:07:09;12.50;99.90
20512;DHT22;10414;52.074;5.126;2022-09-17T06:09:36;12.60;99.90
20512;DHT22;10414;52.074;5.126;2022-09-17T06:12:07;12.80;99.90
20512;DHT22;10414;52.074;5.126;2022-09-17T06:14:34;13.10;99.90
20512;DHT22;10414;52.074;5.126;2022-09-17T06:17:00;13.90;99.90
20512;DHT22;10414;52.074;5.126;2022-09-17T06:19:27;15.40;99.90
20512;DHT22;10414;52.074;5.126;2022-09-17T06:21:54;17.20;99.90
20512;DHT22;10414;52.074;5.126;2022-09-17T06:24:21;18.90;99.90
20512;DHT22;10414;52.074;5.126;2022-09-17T06:26:48;19.90;98.20
20512;DHT22;10414;52.074;5.126;2022-09-17T06:29:16;21.00;96.40
20512;DHT22;10414;52.074;5.126;2022-09-17T06:31:43;22.80;94.90
20512;DHT22;10414;52.074;5.126;2022-09-17T06:34:10;23.30;93.60
20512;DHT22;10414;52.074;5.126;2022-09-17T06:36:37;24.10;92.80
20512;DHT22;10414;52.074;5.126;2022-09-17T06:39:08;22.30;93.30
20512;DHT22;10414;52.074;5.126;2022-09-17T06:41:36;21.50;94.90
20512;DHT22;10414;52.074;5.126;2022-09-17T06:44:03;20.60;95.10
20512;DHT22;10414;52.074;5.126;2022-09-17T06:46:32;21.70;94.80
20512;DHT22;10414;52.074;5.126;2022-09-17T06:48:59;23.30;93.70
20512;DHT22;10414;52.074;5.126;2022-09-17T06:51:26;25.50;91.60
20512;DHT22;10414;52.074;5.126;2022-09-17T06:53:53;27.30;89.20
20512;DHT22;10414;52.074;5.126;2022-09-17T06:56:20;29.40;85.60
20512;DHT22;10414;52.074;5.126;2022-09-17T06:58:47;29.70;83.00
20512;DHT22;10414;52.074;5.126;2022-09-17T07:01:14;30.90;81.00
20512;DHT22;10414;52.074;5.126;2022-09-17T07:03:42;30.70;79.60
20512;DHT22;10414;52.074;5.126;2022-09-17T07:06:10;31.10;79.10
20512;DHT22;10414;52.074;5.126;2022-09-17T07:08:37;28.90;80.40
20512;DHT22;10414;52.074;5.126;2022-09-17T07:11:05;27.10;83.30
20512;DHT22;10414;52.074;5.126;2022-09-17T07:13:33;23.30;89.50
20512;DHT22;10414;52.074;5.126;2022-09-17T07:16:01;21.90;92.10
20512;DHT22;10414;52.074;5.126;2022-09-17T07:18:28;20.70;93.70
20512;DHT22;10414;52.074;5.126;2022-09-17T07:20:58;19.70;95.10
20512;DHT22;10414;52.074;5.126;2022-09-17T07:23:29;20.10;95.40
20512;DHT22;10414;52.074;5.126;2022-09-17T07:25:59;23.20;92.30
20512;DHT22;10414;52.074;5.126;2022-09-17T07:28:27;26.40;88.70
20512;DHT22;10414;52.074;5.126;2022-09-17T07:30:54;28.10;84.40
20512;DHT22;10414;52.074;5.126;2022-09-17T07:33:25;29.20;79.80
20512;DHT22;10414;52.074;5.126;2022-09-17T07:35:53;28.40;82.80
20512;DHT22;10414;52.074;5.126;2022-09-17T07:38:22;30.10;80.80
20512;DHT22;10414;52.074;5.126;2022-09-17T07:40:55;30.80;79.10
20512;DHT22;10414;52.074;5.126;2022-09-17T07:43:23;28.80;80.80
20512;DHT22;10414;52.074;5.126;2022-09-17T07:45:51;25.60;86.50
20512;DHT22;10414;52.074;5.126;2022-09-17T07:48:18;23.90;86.20
20512;DHT22;10414;52.074;5.126;2022-09-17T07:50:46;24.00;86.50
20512;DHT22;10414;52.074;5.126;2022-09-17T07:53:13;25.20;86.50
20512;DHT22;10414;52.074;5.126;2022-09-17T07:55:51;26.90;84.90
20512;DHT22;10414;52.074;5.126;2022-09-17T07:58:18;28.50;79.80
20512;DHT22;10414;52.074;5.126;2022-09-17T08:00:45;27.90;80.30
20512;DHT22;10414;52.074;5.126;2022-09-17T08:03:13;26.90;80.60
20512;DHT22;10414;52.074;5.126;2022-09-17T08:05:40;25.60;82.50
20512;DHT22;10414;52.074;5.126;2022-09-17T08:08:07;23.40;87.40
20512;DHT22;10414;52.074;5.126;2022-09-17T08:10:34;21.10;90.80
20512;DHT22;10414;52.074;5.126;2022-09-17T08:13:03;20.20;92.90
20512;DHT22;10414;52.074;5.126;2022-09-17T08:15:30;20.90;92.80
20512;DHT22;10414;52.074;5.126;2022-09-17T08:17:57;22.30;91.30
20512;DHT22;10414;52.074;5.126;2022-09-17T08:20:26;23.70;90.30
20512;DHT22;10414;52.074;5.126;2022-09-17T08:23:02;25.50;85.30
20512;DHT22;10414;52.074;5.126;2022-09-17T08:25:29;26.30;82.90
20512;DHT22;10414;52.074;5.126;2022-09-17T08:27:56;25.60;82.90
20512;DHT22;10414;52.074;5.126;2022-09-17T08:30:25;23.70;85.00
20512;DHT22;10414;52.074;5.126;2022-09-17T08:32:54;22.90;85.10
20512;DHT22;10414;52.074;5.126;2022-09-17T08:35:22;22.80;89.20
20512;DHT22;10414;52.074;5.126;2022-09-17T08:37:53;21.90;91.00
20512;DHT22;10414;52.074;5.126;2022-09-17T08:40:21;19.80;94.70
20512;DHT22;10414;52.074;5.126;2022-09-17T08:42:52;17.40;99.10
20512;DHT22;10414;52.074;5.126;2022-09-17T08:45:25;15.80;99.90
20512;DHT22;10414;52.074;5.126;2022-09-17T08:47:54;15.30;99.90
20512;DHT22;10414;52.074;5.126;2022-09-17T08:50:28;15.00;99.90
20512;DHT22;10414;52.074;5.126;2022-09-17T08:55:45;15.80;99.90
20512;DHT22;10414;52.074;5.126;2022-09-17T09:01:26;21.50;98.60
20512;DHT22;10414;52.074;5.126;2022-09-17T09:04:22;25.80;93.20
20512;DHT22;10414;52.074;5.126;2022-09-17T09:06:54;27.90;88.90
20512;DHT22;10414;52.074;5.126;2022-09-17T09:09:27;25.00;90.40
20512;DHT22;10414;52.074;5.126;2022-09-17T09:11:56;23.10;93.50
20512;DHT22;10414;52.074;5.126;2022-09-17T09:14:27;21.80;94.50
20512;DHT22;10414;52.074;5.126;2022-09-17T09:16:59;19.80;97.20
20512;DHT22;10414;52.074;5.126;2022-09-17T09:19:36;18.70;99.90
20512;DHT22;10414;52.074;5.126;2022-09-17T09:22:14;18.00;99.90
20512;DHT22;10414;52.074;5.126;2022-09-17T09:24:52;17.20;99.90
20512;DHT22;10414;52.074;5.126;2022-09-17T09:27:30;17.00;99.90
20512;DHT22;10414;52.074;5.126;2022-09-17T09:30:02;17.40;99.90
20512;DHT22;10414;52.074;5.126;2022-09-17T09:32:46;19.70;99.90
20512;DHT22;10414;52.074;5.126;2022-09-17T09:35:18;22.20;97.40
20512;DHT22;10414;52.074;5.126;2022-09-17T09:37:52;23.30;95.60
20512;DHT22;10414;52.074;5.126;2022-09-17T09:40:30;24.90;94.00
20512;DHT22;10414;52.074;5.126;2022-09-17T09:43:00;26.10;92.30
20512;DHT22;10414;52.074;5.126;2022-09-17T09:45:40;26.50;91.40
20512;DHT22;10414;52.074;5.126;2022-09-17T09:48:20;26.80;91.40
20512;DHT22;10414;52.074;5.126;2022-09-17T09:51:05;26.80;89.50
20512;DHT22;10414;52.074;5.126;2022-09-17T09:53:40;27.20;90.10
20512;DHT22;10414;52.074;5.126;2022-09-17T09:56:27;27.90;86.70
20512;DHT22;10414;52.074;5.126;2022-09-17T09:58:58;28.20;89.30
20512;DHT22;10414;52.074;5.126;2022-09-17T10:01:26;28.00;87.40
20512;DHT22;10414;52.074;5.126;2022-09-17T10:04:15;28.10;86.90
20512;DHT22;10414;52.074;5.126;2022-09-17T10:06:44;28.40;84.60
20512;DHT22;10414;52.074;5.126;2022-09-17T10:09:12;25.80;87.90
20512;DHT22;10414;52.074;5.126;2022-09-17T10:11:42;23.40;91.30
20512;DHT22;10414;52.074;5.126;2022-09-17T10:14:26;20.70;95.60
20512;DHT22;10414;52.074;5.126;2022-09-17T10:20:16;17.90;99.60
20512;DHT22;10414;52.074;5.126;2022-09-17T10:22:45;17.20;99.90
20512;DHT22;10414;52.074;5.126;2022-09-17T10:25:29;16.60;99.90
20512;DHT22;10414;52.074;5.126;2022-09-17T10:27:58;16.70;99.90
20512;DHT22;10414;52.074;5.126;2022-09-17T10:30:26;17.10;99.90
20512;DHT22;10414;52.074;5.126;2022-09-17T10:33:17;18.90;98.90
20512;DHT22;10414;52.074;5.126;2022-09-17T10:35:58;20.90;96.20
20512;DHT22;10414;52.074;5.126;2022-09-17T10:38:33;20.90;93.90
20512;DHT22;10414;52.074;5.126;2022-09-17T10:41:19;21.00;94.50
20512;DHT22;10414;52.074;5.126;2022-09-17T10:43:47;21.20;94.10
20512;DHT22;10414;52.074;5.126;2022-09-17T10:46:17;21.60;94.00
20512;DHT22;10414;52.074;5.126;2022-09-17T10:48:45;22.20;93.30
20512;DHT22;10414;52.074;5.126;2022-09-17T10:51:24;22.40;92.70
20512;DHT22;10414;52.074;5.126;2022-09-17T10:57:19;22.90;92.20
20512;DHT22;10414;52.074;5.126;2022-09-17T10:59:58;22.00;93.30
20512;DHT22;10414;52.074;5.126;2022-09-17T11:03:07;21.90;93.20
20512;DHT22;10414;52.074;5.126;2022-09-17T11:05:44;22.20;93.70
20512;DHT22;10414;52.074;5.126;2022-09-17T11:08:22;22.80;93.40
20512;DHT22;10414;52.074;5.126;2022-09-17T11:11:05;22.00;92.90
20512;DHT22;10414;52.074;5.126;2022-09-17T11:13:38;21.90;92.70
20512;DHT22;10414;52.074;5.126;2022-09-17T11:16:27;21.40;93.90
20512;DHT22;10414;52.074;5.126;2022-09-17T11:19:05;20.50;93.80
20512;DHT22;10414;52.074;5.126;2022-09-17T11:21:41;20.00;94.70
20512;DHT22;10414;52.074;5.126;2022-09-17T11:24:50;20.20;95.30
20512;DHT22;10414;52.074;5.126;2022-09-17T11:27:41;20.60;94.40
20512;DHT22;10414;52.074;5.126;2022-09-17T11:30:16;19.90;91.90
20512;DHT22;10414;52.074;5.126;2022-09-17T11:33:12;19.80;92.10
20512;DHT22;10414;52.074;5.126;2022-09-17T11:35:46;19.20;89.90
20512;DHT22;10414;52.074;5.126;2022-09-17T11:38:19;18.60;88.80
20512;DHT22;10414;52.074;5.126;2022-09-17T11:40:58;18.60;90.60
20512;DHT22;10414;52.074;5.126;2022-09-17T11:43:29;18.60;90.50
20512;DHT22;10414;52.074;5.126;2022-09-17T11:46:02;18.40;91.80
20512;DHT22;10414;52.074;5.126;2022-09-17T11:48:36;18.50;91.70
20512;DHT22;10414;52.074;5.126;2022-09-17T11:51:17;18.80;91.80
20512;DHT22;10414;52.074;5.126;2022-09-17T11:53:48;18.70;90.70
20512;DHT22;10414;52.074;5.126;2022-09-17T11:56:22;18.40;90.80
20512;DHT22;10414;52.074;5.126;2022-09-17T11:58:54;18.50;91.20
20512;DHT22;10414;52.074;5.126;2022-09-17T12:01:27;18.80;90.80
20512;DHT22;10414;52.074;5.126;2022-09-17T12:03:59;19.30;91.90
20512;DHT22;10414;52.074;5.126;2022-09-17T12:06:33;19.40;91.20
20512;DHT22;10414;52.074;5.126;2022-09-17T12:09:07;19.30;90.70
20512;DHT22;10414;52.074;5.126;2022-09-17T12:11:40;19.20;90.60
20512;DHT22;10414;52.074;5.126;2022-09-17T12:14:16;19.40;90.10
20512;DHT22;10414;52.074;5.126;2022-09-17T12:16:51;19.10;90.90
20512;DHT22;10414;52.074;5.126;2022-09-17T12:22:19;18.40;92.40
20512;DHT22;10414;52.074;5.126;2022-09-17T12:24:53;18.10;92.20
20512;DHT22;10414;52.074;5.126;2022-09-17T12:27:57;18.10;91.80
20512;DHT22;10414;52.074;5.126;2022-09-17T12:30:46;18.00;91.40
20512;DHT22;10414;52.074;5.126;2022-09-17T12:33:26;17.90;92.40
20512;DHT22;10414;52.074;5.126;2022-09-17T12:39:27;17.80;93.00
20512;DHT22;10414;52.074;5.126;2022-09-17T12:42:11;17.40;93.60
20512;DHT22;10414;52.074;5.126;2022-09-17T12:45:06;17.30;94.20
20512;DHT22;10414;52.074;5.126;2022-09-17T12:47:54;17.30;94.80
20512;DHT22;10414;52.074;5.126;2022-09-17T12:50:45;17.10;94.40
20512;DHT22;10414;52.074;5.126;2022-09-17T12:53:24;17.20;95.90
20512;DHT22;10414;52.074;5.126;2022-09-17T12:56:05;17.00;95.20
20512;DHT22;10414;52.074;5.126;2022-09-17T12:58:44;17.40;94.30
20512;DHT22;10414;52.074;5.126;2022-09-17T13:01:23;17.50;95.30
20512;DHT22;10414;52.074;5.126;2022-09-17T13:03:56;17.40;94.60
20512;DHT22;10414;52.074;5.126;2022-09-17T13:10:16;17.50;94.50
20512;DHT22;10414;52.074;5.126;2022-09-17T13:12:52;17.70;93.30
20512;DHT22;10414;52.074;5.126;2022-09-17T13:15:51;17.70;92.60
20512;DHT22;10414;52.074;5.126;2022-09-17T13:18:28;17.80;92.80
20512;DHT22;10414;52.074;5.126;2022-09-17T13:21:00;17.70;92.70
20512;DHT22;10414;52.074;5.126;2022-09-17T13:23:33;17.60;92.60
20512;DHT22;10414;52.074;5.126;2022-09-17T13:26:01;17.70;93.80
20512;DHT22;10414;52.074;5.126;2022-09-17T13:28:49;17.60;92.40
20512;DHT22;10414;52.074;5.126;2022-09-17T13:31:21;17.60;92.40
20512;DHT22;10414;52.074;5.126;2022-09-17T13:33:54;17.80;92.70
20512;DHT22;10414;52.074;5.126;2022-09-17T13:36:51;18.00;93.20
20512;DHT22;10414;52.074;5.126;2022-09-17T13:39:42;18.10;90.70
20512;DHT22;10414;52.074;5.126;2022-09-17T13:42:15;17.80;89.70
20512;DHT22;10414;52.074;5.126;2022-09-17T13:44:47;17.60;90.10
20512;DHT22;10414;52.074;5.126;2022-09-17T13:47:25;17.90;89.60
20512;DHT22;10414;52.074;5.126;2022-09-17T13:49:58;17.80;89.70
20512;DHT22;10414;52.074;5.126;2022-09-17T13:52:47;17.80;90.00
20512;DHT22;10414;52.074;5.126;2022-09-17T13:55:32;18.00;89.70
20512;DHT22;10414;52.074;5.126;2022-09-17T13:58:01;18.10;89.10
20512;DHT22;10414;52.074;5.126;2022-09-17T14:00:50;18.20;89.80
20512;DHT22;10414;52.074;5.126;2022-09-17T14:03:52;18.10;90.60
20512;DHT22;10414;52.074;5.126;2022-09-17T14:06:47;17.80;91.00
20512;DHT22;10414;52.074;5.126;2022-09-17T14:09:39;17.70;90.70
20512;DHT22;10414;52.074;5.126;2022-09-17T14:12:50;17.60;91.10
20512;DHT22;10414;52.074;5.126;2022-09-17T14:15:48;17.90;91.60
20512;DHT22;10414;52.074;5.126;2022-09-17T14:18:44;18.00;91.50
20512;DHT22;10414;52.074;5.126;2022-09-17T14:21:26;18.00;90.20
20512;DHT22;10414;52.074;5.126;2022-09-17T14:23:58;17.90;91.20
20512;DHT22;10414;52.074;5.126;2022-09-17T14:26:38;18.10;90.90
20512;DHT22;10414;52.074;5.126;2022-09-17T14:29:17;18.30;90.80
20512;DHT22;10414;52.074;5.126;2022-09-17T14:31:46;18.70;91.20
20512;DHT22;10414;52.074;5.126;2022-09-17T14:34:17;18.50;90.60
20512;DHT22;10414;52.074;5.126;2022-09-17T14:36:45;18.70;91.10
20512;DHT22;10414;52.074;5.126;2022-09-17T14:39:21;18.60;91.80
20512;DHT22;10414;52.074;5.126;2022-09-17T14:41:50;18.80;92.50
20512;DHT22;10414;52.074;5.126;2022-09-17T14:44:20;18.20;93.70
20512;DHT22;10414;52.074;5.126;2022-09-17T14:46:52;17.90;94.50
20512;DHT22;10414;52.074;5.126;2022-09-17T14:49:22;18.00;94.50
20512;DHT22;10414;52.074;5.126;2022-09-17T14:51:49;18.40;94.00
20512;DHT22;10414;52.074;5.126;2022-09-17T14:54:22;18.30;93.90
20512;DHT22;10414;52.074;5.126;2022-09-17T14:56:58;17.70;93.70
20512;DHT22;10414;52.074;5.126;2022-09-17T14:59:37;17.60;93.70
20512;DHT22;10414;52.074;5.126;2022-09-17T15:02:35;17.60;94.00
20512;DHT22;10414;52.074;5.126;2022-09-17T15:05:24;17.40;91.60
20512;DHT22;10414;52.074;5.126;2022-09-17T15:08:04;17.30;91.10
20512;DHT22;10414;52.074;5.126;2022-09-17T15:10:34;17.20;90.30
20512;DHT22;10414;52.074;5.126;2022-09-17T15:13:11;17.30;90.60
20512;DHT22;10414;52.074;5.126;2022-09-17T15:15:39;17.20;90.70
20512;DHT22;10414;52.074;5.126;2022-09-17T15:18:06;17.10;91.00
20512;DHT22;10414;52.074;5.126;2022-09-17T15:20:33;16.90;91.70
20512;DHT22;10414;52.074;5.126;2022-09-17T15:23:07;17.00;92.00
20512;DHT22;10414;52.074;5.126;2022-09-17T15:25:38;17.10;92.50
20512;DHT22;10414;52.074;5.126;2022-09-17T15:28:17;17.00;92.80
20512;DHT22;10414;52.074;5.126;2022-09-17T15:30:49;16.90;93.30
20512;DHT22;10414;52.074;5.126;2022-09-17T15:33:16;17.00;93.60
20512;DHT22;10414;52.074;5.126;2022-09-17T15:35:58;17.00;93.30
20512;DHT22;10414;52.074;5.126;2022-09-17T15:38:26;17.00;92.70
20512;DHT22;10414;52.074;5.126;2022-09-17T15:44:11;17.00;92.00
20512;DHT22;10414;52.074;5.126;2022-09-17T15:46:40;17.00;92.00
20512;DHT22;10414;52.074;5.126;2022-09-17T15:49:28;16.90;91.60
20512;DHT22;10414;52.074;5.126;2022-09-17T15:52:24;16.90;92.00
20512;DHT22;10414;52.074;5.126;2022-09-17T15:54:55;17.00;92.10
20512;DHT22;10414;52.074;5.126;2022-09-17T15:57:24;16.60;91.70
20512;DHT22;10414;52.074;5.126;2022-09-17T15:59:51;16.30;92.00
20512;DHT22;10414;52.074;5.126;2022-09-17T16:02:27;16.10;91.80
20512;DHT22;10414;52.074;5.126;2022-09-17T16:05:42;15.90;91.60
20512;DHT22;10414;52.074;5.126;2022-09-17T16:08:22;15.80;91.70
20512;DHT22;10414;52.074;5.126;2022-09-17T16:10:51;15.80;92.20
20512;DHT22;10414;52.074;5.126;2022-09-17T16:13:20;15.80;92.50
20512;DHT22;10414;52.074;5.126;2022-09-17T16:15:47;15.80;93.30
20512;DHT22;10414;52.074;5.126;2022-09-17T16:18:14;15.90;93.40
20512;DHT22;10414;52.074;5.126;2022-09-17T16:20:41;15.80;93.60
20512;DHT22;10414;52.074;5.126;2022-09-17T16:23:08;15.90;94.10
20512;DHT22;10414;52.074;5.126;2022-09-17T16:25:36;15.80;94.60
20512;DHT22;10414;52.074;5.126;2022-09-17T16:28:09;15.70;96.20
20512;DHT22;10414;52.074;5.126;2022-09-17T16:30:39;15.40;98.90
20512;DHT22;10414;52.074;5.126;2022-09-17T16:33:09;14.90;99.90
20512;DHT22;10414;52.074;5.126;2022-09-17T16:35:36;14.40;99.90
20512;DHT22;10414;52.074;5.126;2022-09-17T16:38:04;14.10;99.90